This is the latest recevied weather packets stored in our database for station/object N0QWM. If no packets are shown the sender has not sent any weather packets the latest 10 day(s).
| Time | Temp. | Humidity | Pressure | Rain* | Wind** | Luminosity | Snow |
|---|---|---|---|---|---|---|---|
| 1788639525 | 36.11° C | 60% | 1016.7 hPa | 0 mm | - | 533 W/m² | - |
| 1788639220 | 36.11° C | 59% | 1016.6 hPa | 0 mm | - | 513 W/m² | - |
| 1788638941 | 36.11° C | 60% | 1016.7 hPa | 0 mm | - | 479 W/m² | - |
| 1788638616 | 36.11° C | 59% | 1016.7 hPa | 0 mm | - | 464 W/m² | - |
| 1788638314 | 35.56° C | 61% | 1017 hPa | 0 mm | - | 516 W/m² | - |
| 1788638009 | 36.11° C | 60% | 1017.1 hPa | 0 mm | - | 513 W/m² | - |
| 1788637705 | 35.56° C | 60% | 1016.7 hPa | 0 mm | - | 528 W/m² | - |
| 1788637405 | 35.56° C | 60% | 1016.9 hPa | 0 mm | - | 609 W/m² | - |
| 1788637104 | 35° C | 61% | 1016.9 hPa | 0 mm | - | 611 W/m² | - |
| 1788636799 | 35.56° C | 64% | 1016.8 hPa | 0 mm | - | 626 W/m² | - |
| 1788636495 | 35° C | 63% | 1016.9 hPa | 0 mm | - | 512 W/m² | - |
| 1788636191 | 34.44° C | 64% | 1017.3 hPa | 0 mm | - | 211 W/m² | - |
| 1788635890 | 33.33° C | 67% | 1017.2 hPa | 0 mm | - | 503 W/m² | - |
| 1788635588 | 33.89° C | 67% | 1017.6 hPa | 0 mm | - | 127 W/m² | - |
| 1788635287 | 33.89° C | 67% | 1017.4 hPa | 0 mm | - | 460 W/m² | - |
| 1788634987 | 34.44° C | 66% | 1017.5 hPa | 0 mm | - | 521 W/m² | - |
| 1788634686 | 34.44° C | 65% | 1017.6 hPa | 0 mm | - | 167 W/m² | - |
| 1788634381 | 35° C | 64% | 1017.6 hPa | 0 mm | - | 210 W/m² | - |
| 1788634081 | 36.11° C | 61% | 1017.6 hPa | 0 mm | - | 256 W/m² | - |
| 1788633780 | 36.11° C | 59% | 1018 hPa | 0 mm | - | 668 W/m² | - |
| 1788633479 | 37.22° C | 50% | 1017.8 hPa | 0 mm | - | 661 W/m² | - |
| 1788633174 | 36.67° C | 52% | 1017.8 hPa | 0 mm | - | 603 W/m² | - |
| 1788632873 | 36.67° C | 51% | 1017.8 hPa | 0 mm | - | 620 W/m² | - |
| 1788632568 | 35.56° C | 52% | 1018 hPa | 0 mm | - | 165 W/m² | - |
| 1788632263 | 36.11° C | 52% | 1018 hPa | 0 mm | - | 161 W/m² | - |
* Rain latest hour (hover to see other rain measurements)
** Current wind speed in m/s (hover to see current wind gust speed)